createdAt,value
2019-02-22T00:00:33.515Z,12.77
2019-02-22T00:03:00.914Z,17.98
2019-02-22T00:05:28.330Z,19.83
2019-02-22T00:07:56.613Z,14.45
2019-02-22T00:10:24.065Z,19.12
2019-02-22T00:12:51.491Z,12.45
2019-02-22T00:15:18.888Z,18.60
2019-02-22T00:17:46.348Z,13.73
2019-02-22T00:20:13.775Z,14.40
2019-02-22T00:22:41.193Z,19.37
2019-02-22T00:25:08.632Z,14.82
2019-02-22T00:27:36.039Z,18.77
2019-02-22T00:30:03.431Z,17.00
2019-02-22T00:32:30.889Z,14.70
2019-02-22T00:34:58.330Z,18.92
2019-02-22T00:37:25.727Z,11.02
2019-02-22T00:39:53.157Z,15.68
2019-02-22T00:42:20.571Z,15.43
2019-02-22T00:44:48.039Z,17.27
2019-02-22T00:47:15.438Z,17.90
2019-02-22T00:49:42.844Z,13.57
2019-02-22T00:52:10.242Z,17.37
2019-02-22T00:54:37.676Z,19.70
2019-02-22T00:57:05.065Z,15.20
2019-02-22T00:59:32.481Z,23.17
2019-02-22T01:02:00.046Z,29.50
2019-02-22T01:04:27.437Z,13.85
2019-02-22T01:06:54.874Z,12.48
2019-02-22T01:09:22.288Z,21.05
2019-02-22T01:11:49.691Z,19.23
2019-02-22T01:14:17.128Z,14.10
2019-02-22T01:16:44.547Z,21.30
2019-02-22T01:19:11.935Z,12.75
2019-02-22T01:21:39.339Z,20.15
2019-02-22T01:24:06.747Z,12.65
2019-02-22T01:26:34.169Z,28.30
2019-02-22T01:29:01.557Z,13.55
2019-02-22T01:31:28.940Z,22.23
2019-02-22T01:33:56.787Z,19.87
2019-02-22T01:36:24.202Z,17.37
2019-02-22T01:38:51.615Z,21.52
2019-02-22T01:41:19.044Z,17.45
2019-02-22T01:43:46.598Z,19.87
2019-02-22T01:46:14.066Z,19.35
2019-02-22T01:48:41.468Z,14.68
2019-02-22T01:51:08.867Z,18.50
2019-02-22T01:53:36.267Z,17.67
2019-02-22T01:56:03.677Z,18.58
2019-02-22T01:58:31.099Z,18.77
2019-02-22T02:00:58.490Z,18.48
2019-02-22T02:03:25.964Z,19.25
2019-02-22T02:05:53.380Z,20.45
2019-02-22T02:08:20.975Z,25.50
2019-02-22T02:10:54.075Z,16.95
2019-02-22T02:13:15.905Z,15.90
2019-02-22T02:15:43.308Z,27.02
2019-02-22T02:18:10.713Z,21.73
2019-02-22T02:20:38.127Z,15.30
2019-02-22T02:23:05.534Z,17.42
2019-02-22T02:25:32.940Z,17.55
2019-02-22T02:28:00.349Z,24.52
2019-02-22T02:30:27.760Z,23.40
2019-02-22T02:32:55.148Z,12.98
2019-02-22T02:35:22.538Z,17.67
2019-02-22T02:37:49.943Z,11.98
2019-02-22T02:40:17.336Z,20.45
2019-02-22T02:42:44.775Z,19.02
2019-02-22T02:45:12.236Z,20.55
2019-02-22T02:47:39.697Z,14.70
2019-02-22T02:50:07.104Z,24.10
2019-02-22T02:52:34.502Z,18.12
2019-02-22T02:55:02.062Z,26.50
2019-02-22T02:57:29.529Z,14.75
2019-02-22T02:59:56.980Z,16.95
2019-02-22T03:02:24.397Z,19.00
2019-02-22T03:04:51.810Z,17.87
2019-02-22T03:07:24.892Z,15.98
2019-02-22T03:09:52.304Z,27.62
2019-02-22T03:12:19.795Z,14.73
2019-02-22T03:14:47.243Z,19.65
2019-02-22T03:17:14.614Z,13.13
2019-02-22T03:19:42.048Z,25.05
2019-02-22T03:22:09.456Z,16.30
2019-02-22T03:24:36.921Z,19.85
2019-02-22T03:27:04.278Z,20.27
2019-02-22T03:29:31.682Z,15.10
2019-02-22T03:31:59.247Z,14.60
2019-02-22T03:34:26.636Z,15.90
2019-02-22T03:36:54.050Z,20.75
2019-02-22T03:39:21.512Z,16.12
2019-02-22T03:41:49.069Z,15.73
2019-02-22T03:44:16.507Z,14.23
2019-02-22T03:46:43.907Z,15.10
2019-02-22T03:49:11.316Z,21.48
2019-02-22T03:51:38.737Z,24.37
2019-02-22T03:54:06.136Z,18.77
2019-02-22T03:56:33.548Z,20.33
2019-02-22T03:59:01.242Z,14.52
2019-02-22T04:01:28.646Z,22.30
2019-02-22T04:03:56.041Z,21.20
2019-02-22T04:06:23.444Z,28.50
2019-02-22T04:08:50.860Z,20.95
2019-02-22T04:11:18.377Z,15.32
2019-02-22T04:13:45.790Z,15.85
2019-02-22T04:16:13.202Z,20.67
2019-02-22T04:18:40.606Z,21.67
2019-02-22T04:21:08.008Z,19.70
2019-02-22T04:23:35.403Z,14.77
2019-02-22T04:26:02.826Z,16.00
2019-02-22T04:28:30.247Z,18.92
2019-02-22T04:30:57.655Z,18.25
2019-02-22T04:33:25.064Z,15.75
2019-02-22T04:35:52.469Z,14.50
2019-02-22T04:38:19.943Z,18.08
2019-02-22T04:40:47.341Z,29.15
2019-02-22T04:43:14.747Z,20.17
2019-02-22T04:45:42.345Z,20.33
2019-02-22T04:48:09.745Z,17.58
2019-02-22T04:50:37.138Z,16.02
2019-02-22T04:53:04.547Z,16.75
2019-02-22T04:55:31.969Z,14.18
2019-02-22T04:57:59.941Z,14.40
2019-02-22T05:00:27.351Z,13.40
2019-02-22T05:02:54.747Z,18.40
2019-02-22T05:05:22.259Z,27.05
2019-02-22T05:07:49.706Z,21.50
2019-02-22T05:10:17.112Z,12.25
2019-02-22T05:12:44.510Z,14.65
2019-02-22T05:15:13.078Z,15.32
2019-02-22T05:17:39.337Z,21.85
2019-02-22T05:20:06.725Z,20.92
2019-02-22T05:22:34.135Z,24.25
2019-02-22T05:25:01.550Z,14.80
2019-02-22T05:27:29.127Z,27.92
2019-02-22T05:29:56.676Z,18.12
2019-02-22T05:32:24.069Z,18.33
2019-02-22T05:34:51.467Z,20.83
2019-02-22T05:37:18.951Z,13.13
2019-02-22T05:39:46.346Z,36.10
2019-02-22T05:42:22.607Z,15.95
2019-02-22T05:44:41.201Z,27.30
2019-02-22T05:47:08.598Z,16.83
2019-02-22T05:49:36.012Z,18.02
2019-02-22T05:52:03.419Z,19.80
2019-02-22T05:54:30.814Z,25.65
2019-02-22T05:56:58.292Z,20.80
2019-02-22T05:59:25.727Z,17.65
2019-02-22T06:01:53.246Z,20.15
2019-02-22T06:04:20.644Z,15.57
2019-02-22T06:06:48.115Z,27.83
2019-02-22T06:09:15.699Z,15.40
2019-02-22T06:11:43.120Z,15.80
2019-02-22T06:14:10.524Z,23.90
2019-02-22T06:16:37.924Z,16.33
2019-02-22T06:19:05.349Z,13.90
2019-02-22T06:21:32.775Z,18.12
2019-02-22T06:24:02.751Z,13.10
2019-02-22T06:26:30.336Z,18.48
2019-02-22T06:28:55.017Z,20.60
2019-02-22T06:31:22.415Z,17.35
2019-02-22T06:33:49.858Z,16.73
2019-02-22T06:36:17.294Z,17.20
2019-02-22T06:38:46.731Z,17.48
2019-02-22T06:41:12.396Z,19.17
2019-02-22T06:43:39.800Z,16.30
2019-02-22T06:46:07.948Z,20.33
2019-02-22T06:48:35.378Z,18.20
2019-02-22T06:51:02.798Z,17.98
2019-02-22T06:53:30.277Z,17.65
2019-02-22T06:55:57.717Z,27.83
2019-02-22T06:58:25.463Z,17.48
2019-02-22T07:00:52.913Z,13.73
2019-02-22T07:03:20.561Z,14.75
2019-02-22T07:05:48.084Z,13.00
2019-02-22T07:08:15.400Z,15.52
2019-02-22T07:11:03.631Z,13.25
2019-02-22T07:13:31.049Z,15.07
2019-02-22T07:15:58.463Z,21.42
2019-02-22T07:18:25.878Z,26.27
2019-02-22T07:20:53.460Z,37.47
2019-02-22T07:23:20.875Z,15.20
2019-02-22T07:25:48.280Z,16.00
2019-02-22T07:28:15.689Z,16.33
2019-02-22T07:30:43.122Z,14.43
2019-02-22T07:33:10.664Z,22.83
2019-02-22T07:35:38.102Z,15.98
2019-02-22T07:38:05.528Z,20.37
2019-02-22T07:40:32.963Z,20.50
2019-02-22T07:43:07.750Z,32.35
2019-02-22T07:45:27.913Z,18.25
2019-02-22T07:47:55.328Z,32.22
2019-02-22T07:50:22.752Z,34.30
2019-02-22T07:52:50.242Z,33.85
2019-02-22T07:55:17.678Z,26.98
2019-02-22T07:57:45.079Z,26.25
2019-02-22T08:00:13.349Z,24.50
2019-02-22T08:02:40.757Z,24.10
2019-02-22T08:05:09.213Z,25.20
2019-02-22T08:07:35.602Z,22.75
2019-02-22T08:10:03.065Z,22.02
2019-02-22T08:12:30.492Z,31.42
2019-02-22T08:14:58.220Z,27.48
2019-02-22T08:17:25.653Z,23.90
2019-02-22T08:19:53.356Z,25.58
2019-02-22T08:22:20.907Z,22.40
2019-02-22T08:24:48.274Z,27.62
2019-02-22T08:46:51.715Z,25.80
2019-02-22T08:49:19.157Z,27.87
2019-02-22T08:51:47.028Z,23.25
2019-02-22T08:54:14.123Z,18.20
2019-02-22T08:56:41.620Z,34.80
2019-02-22T08:59:09.513Z,34.63
2019-02-22T09:01:37.065Z,28.48
2019-02-22T09:04:04.526Z,31.70
2019-02-22T09:06:31.976Z,24.80
2019-02-22T09:08:59.640Z,25.73
2019-02-22T09:11:27.158Z,17.60
2019-02-22T09:13:54.637Z,24.55
2019-02-22T09:16:22.051Z,17.37
2019-02-22T09:18:49.519Z,22.67
2019-02-22T09:21:16.937Z,36.20
2019-02-22T09:23:44.360Z,20.67
2019-02-22T09:26:11.867Z,27.17
2019-02-22T09:28:39.282Z,20.45
2019-02-22T09:31:06.697Z,26.48
2019-02-22T09:33:34.097Z,23.70
2019-02-22T09:36:01.524Z,30.73
2019-02-22T09:38:28.935Z,26.85
2019-02-22T09:40:56.351Z,19.85
2019-02-22T09:43:23.788Z,19.83
2019-02-22T09:45:51.203Z,18.85
2019-02-22T09:48:18.729Z,21.85
2019-02-22T09:50:46.149Z,26.00
2019-02-22T09:53:13.551Z,25.27
2019-02-22T09:55:40.996Z,25.77
2019-02-22T09:58:08.472Z,25.98
2019-02-22T10:00:35.975Z,22.17
2019-02-22T10:03:03.368Z,23.75
2019-02-22T10:05:30.849Z,23.62
2019-02-22T10:07:58.362Z,23.38
2019-02-22T10:12:52.950Z,21.15
2019-02-22T10:15:20.384Z,17.02
2019-02-22T10:17:48.072Z,24.70
2019-02-22T10:20:15.262Z,14.85
2019-02-22T10:22:42.755Z,19.20
2019-02-22T10:25:10.173Z,19.80
2019-02-22T10:27:37.575Z,23.35
2019-02-22T10:34:59.629Z,17.45
2019-02-22T10:37:27.157Z,21.40
2019-02-22T10:39:54.657Z,21.58
2019-02-22T10:42:22.096Z,18.40
2019-02-22T10:47:16.455Z,28.50
2019-02-22T10:49:43.961Z,48.70
2019-02-22T10:52:11.368Z,19.87
2019-02-22T10:54:38.876Z,25.73
2019-02-22T10:57:06.304Z,23.17
2019-02-22T10:59:33.739Z,17.87
2019-02-22T11:02:01.152Z,28.70
2019-02-22T11:04:28.731Z,22.50
2019-02-22T11:06:56.192Z,23.98
2019-02-22T11:41:14.448Z,26.45
2019-02-22T11:43:41.897Z,30.23
2019-02-22T11:46:09.339Z,24.75
2019-02-22T11:48:36.814Z,21.20
2019-02-22T11:51:05.170Z,19.12
2019-02-22T11:53:32.641Z,32.92
2019-02-22T11:56:00.047Z,29.20
2019-02-22T11:58:27.476Z,20.33
2019-02-22T12:00:55.007Z,31.48
2019-02-22T12:03:24.975Z,22.15
2019-02-22T12:05:50.047Z,21.15
2019-02-22T12:08:17.486Z,16.55
2019-02-22T12:10:44.875Z,18.87
2019-02-22T12:13:12.401Z,21.23
2019-02-22T12:15:39.871Z,19.48
2019-02-22T12:18:07.311Z,17.17
2019-02-22T12:20:34.762Z,24.40
2019-02-22T12:25:29.294Z,31.67
2019-02-22T12:27:56.947Z,26.67
2019-02-22T12:30:25.682Z,11.30
2019-02-22T12:32:51.795Z,22.33
2019-02-22T12:35:19.237Z,15.85
2019-02-22T12:37:46.864Z,21.40
2019-02-22T12:57:23.224Z,14.27
2019-02-22T12:59:50.754Z,28.40
2019-02-22T13:02:18.314Z,10.40
2019-02-22T13:21:54.660Z,10.77
2019-02-22T13:24:22.069Z,11.05
2019-02-22T13:26:49.506Z,16.08
2019-02-22T13:29:16.922Z,7.95
2019-02-22T13:31:44.345Z,12.13
2019-02-22T13:34:11.762Z,10.65
2019-02-22T13:36:39.520Z,7.57
2019-02-22T13:39:06.922Z,7.15
2019-02-22T13:41:34.360Z,8.18
2019-02-22T13:44:01.775Z,9.95
2019-02-22T13:46:29.201Z,9.38
2019-02-22T13:48:56.596Z,11.35
2019-02-22T13:51:24.018Z,12.07
2019-02-22T13:53:51.499Z,9.60
2019-02-22T13:56:29.141Z,15.45
2019-02-22T14:30:37.035Z,10.85
2019-02-22T14:33:04.570Z,11.95
2019-02-22T14:35:31.984Z,15.70
2019-02-22T14:45:20.813Z,20.58
2019-02-22T14:47:48.279Z,19.37
2019-02-22T14:50:15.711Z,24.60
2019-02-22T14:52:43.142Z,22.10
2019-02-22T14:55:11.135Z,25.53
2019-02-22T14:57:39.454Z,29.30
2019-02-22T15:00:07.675Z,23.63
2019-02-22T15:02:35.196Z,35.60
2019-02-22T15:05:02.643Z,34.33
2019-02-22T15:07:31.317Z,39.70
2019-02-22T15:09:59.106Z,32.50
2019-02-22T15:12:26.167Z,32.20
2019-02-22T15:14:53.626Z,38.40
2019-02-22T15:17:21.434Z,47.13
2019-02-22T15:19:48.863Z,37.50
2019-02-22T15:22:16.294Z,32.33
2019-02-22T15:24:43.944Z,40.47
2019-02-22T15:27:11.611Z,34.70
2019-02-22T15:29:39.019Z,49.03
2019-02-22T15:32:06.605Z,53.87
2019-02-22T15:34:34.081Z,42.60
2019-02-22T15:37:01.712Z,65.63
2019-02-22T15:39:29.182Z,60.70
2019-02-22T15:41:56.675Z,55.80
2019-02-22T15:44:24.189Z,75.07
2019-02-22T15:46:51.584Z,82.27
2019-02-22T15:49:19.013Z,86.13
2019-02-22T15:51:46.462Z,69.50
2019-02-22T15:54:13.855Z,74.43
2019-02-22T15:56:41.661Z,82.60
2019-02-22T15:59:09.134Z,57.07
2019-02-22T16:01:36.617Z,62.77
2019-02-22T16:04:04.118Z,72.30
2019-02-22T16:06:32.412Z,61.17
2019-02-22T16:08:58.955Z,45.50
2019-02-22T16:11:26.541Z,49.47
2019-02-22T16:13:53.989Z,56.03
2019-02-22T16:16:23.517Z,57.40
2019-02-22T16:18:48.936Z,60.00
2019-02-22T16:21:16.355Z,43.40
2019-02-22T16:23:44.050Z,41.37
2019-02-22T16:26:11.490Z,29.20
2019-02-22T16:28:38.950Z,20.83
2019-02-22T16:31:06.390Z,23.30
2019-02-22T16:33:33.812Z,22.17
2019-02-22T16:36:01.244Z,19.92
2019-02-22T16:38:28.700Z,21.87
2019-02-22T16:40:56.127Z,16.92
2019-02-22T16:43:23.532Z,14.82
2019-02-22T16:45:51.029Z,21.25
2019-02-22T16:48:18.460Z,12.18
2019-02-22T16:50:45.858Z,10.68
2019-02-22T16:53:13.432Z,11.05
2019-02-22T16:55:40.831Z,8.25
2019-02-22T16:58:08.443Z,9.68
2019-02-22T17:00:35.911Z,10.77
2019-02-22T17:03:03.348Z,13.65
2019-02-22T17:05:30.818Z,10.95
2019-02-22T17:07:58.230Z,6.62
2019-02-22T17:10:25.680Z,15.88
2019-02-22T17:12:53.100Z,8.80
2019-02-22T17:15:20.533Z,12.48
2019-02-22T17:17:48.072Z,10.43
2019-02-22T17:20:15.564Z,10.13
2019-02-22T17:22:43.134Z,17.52
2019-02-22T17:25:15.944Z,9.68
2019-02-22T17:27:43.562Z,10.90
2019-02-22T17:30:13.795Z,14.32
2019-02-22T17:32:41.215Z,20.27
2019-02-22T17:35:08.705Z,10.77
2019-02-22T17:37:36.151Z,13.95
2019-02-22T17:40:03.605Z,12.95
2019-02-22T17:42:31.019Z,13.00
2019-02-22T17:44:58.449Z,13.30
2019-02-22T17:47:25.863Z,10.32
2019-02-22T17:49:54.095Z,12.88
2019-02-22T17:52:21.489Z,14.63
2019-02-22T17:54:48.967Z,11.40
2019-02-22T17:57:16.446Z,12.60
2019-02-22T17:59:43.872Z,16.40
2019-02-22T18:02:11.561Z,12.60
2019-02-22T18:04:38.954Z,13.20
2019-02-22T18:07:06.556Z,13.15
2019-02-22T18:09:34.125Z,15.85
2019-02-22T18:12:01.537Z,13.02
2019-02-22T18:14:28.994Z,17.55
2019-02-22T18:16:56.438Z,18.35
2019-02-22T18:19:23.883Z,11.52
2019-02-22T18:21:51.290Z,12.82
2019-02-22T18:24:18.747Z,12.70
2019-02-22T18:26:46.243Z,13.73
2019-02-22T18:29:13.682Z,17.77
2019-02-22T18:31:42.374Z,12.43
2019-02-22T18:34:08.514Z,11.98
2019-02-22T18:36:35.951Z,10.85
2019-02-22T18:39:05.357Z,18.40
2019-02-22T18:41:32.825Z,11.63
2019-02-22T18:44:00.272Z,14.48
2019-02-22T18:46:27.693Z,11.93
2019-02-22T18:48:55.115Z,11.63
2019-02-22T18:51:22.745Z,14.25
2019-02-22T18:53:50.206Z,12.55
2019-02-22T18:56:17.624Z,10.77
2019-02-22T18:58:45.045Z,12.00
2019-02-22T19:01:12.472Z,12.77
2019-02-22T19:03:39.919Z,11.07
2019-02-22T19:06:07.383Z,10.93
2019-02-22T19:08:34.871Z,11.12
2019-02-22T19:11:02.273Z,11.70
2019-02-22T19:13:29.703Z,14.48
2019-02-22T19:15:57.311Z,10.43
2019-02-22T19:18:24.702Z,13.45
2019-02-22T19:20:52.710Z,9.70
2019-02-22T19:23:20.159Z,12.05
2019-02-22T19:25:47.608Z,14.43
2019-02-22T19:28:15.019Z,10.15
2019-02-22T19:30:42.451Z,10.43
2019-02-22T19:33:09.864Z,13.02
2019-02-22T19:35:37.403Z,12.80
2019-02-22T19:38:04.840Z,13.50
2019-02-22T19:40:32.259Z,10.07
2019-02-22T19:42:59.658Z,11.10
2019-02-22T19:45:27.062Z,13.35
2019-02-22T19:47:54.825Z,11.60
2019-02-22T19:50:22.406Z,16.45
2019-02-22T19:52:49.884Z,10.57
2019-02-22T19:55:17.467Z,11.48
2019-02-22T19:57:45.007Z,11.45
2019-02-22T20:00:13.176Z,9.68
2019-02-22T20:02:40.582Z,12.88
2019-02-22T20:05:08.019Z,12.20
2019-02-22T20:07:35.455Z,11.80
2019-02-22T20:10:03.011Z,10.85
2019-02-22T20:12:30.415Z,18.33
2019-02-22T20:14:57.854Z,15.35
2019-02-22T20:17:25.392Z,15.93
2019-02-22T20:19:53.373Z,14.50
2019-02-22T20:22:20.969Z,11.12
2019-02-22T20:24:48.574Z,16.85
2019-02-22T20:27:15.971Z,18.60
2019-02-22T20:29:43.406Z,15.35
2019-02-22T20:32:10.808Z,11.25
2019-02-22T20:34:38.385Z,17.75
2019-02-22T20:37:05.903Z,12.70
2019-02-22T20:39:33.332Z,14.63
2019-02-22T20:42:00.759Z,13.00
2019-02-22T20:44:28.230Z,21.87
2019-02-22T20:46:55.641Z,17.73
2019-02-22T20:49:23.856Z,14.35
2019-02-22T20:51:51.299Z,17.00
2019-02-22T20:54:18.717Z,11.80
2019-02-22T20:56:46.137Z,16.00
2019-02-22T20:59:13.799Z,11.73
2019-02-22T21:01:41.198Z,13.45
2019-02-22T21:04:08.907Z,11.95
2019-02-22T21:06:36.991Z,15.52
2019-02-22T21:09:04.398Z,20.17
2019-02-22T21:11:31.852Z,16.12
2019-02-22T21:13:59.271Z,16.95
2019-02-22T21:16:26.721Z,19.60
2019-02-22T21:18:54.195Z,11.73
2019-02-22T21:21:22.879Z,24.80
2019-02-22T21:23:52.059Z,16.85
2019-02-22T21:26:17.780Z,14.02
2019-02-22T21:28:45.263Z,13.25
2019-02-22T21:31:12.675Z,18.55
2019-02-22T21:33:40.188Z,20.15
2019-02-22T21:36:07.616Z,20.15
2019-02-22T21:38:35.091Z,16.50
2019-02-22T21:41:02.539Z,14.35
2019-02-22T21:43:33.966Z,16.40
2019-02-22T21:46:01.475Z,18.23
2019-02-22T21:48:28.957Z,17.37
2019-02-22T21:50:56.378Z,17.83
2019-02-22T21:53:25.265Z,17.08
2019-02-22T21:55:52.299Z,14.80
2019-02-22T21:58:19.738Z,16.37
2019-02-22T22:00:47.197Z,19.05
2019-02-22T22:03:14.904Z,20.45
2019-02-22T22:05:42.519Z,15.50
2019-02-22T22:08:10.116Z,15.85
2019-02-22T22:10:37.538Z,18.95
2019-02-22T22:13:04.980Z,18.80
2019-02-22T22:15:32.484Z,14.85
2019-02-22T22:17:59.998Z,13.90
2019-02-22T22:20:27.481Z,19.98
2019-02-22T22:22:54.988Z,16.42
2019-02-22T22:25:22.594Z,18.10
2019-02-22T22:27:50.156Z,17.52
2019-02-22T22:30:17.595Z,19.42
2019-02-22T22:32:45.064Z,18.58
2019-02-22T22:35:13.442Z,20.35
2019-02-22T22:37:40.878Z,15.40
2019-02-22T22:40:09.265Z,15.68
2019-02-22T22:42:36.713Z,17.70
2019-02-22T22:45:05.999Z,25.90
2019-02-22T22:47:31.765Z,17.67
2019-02-22T22:49:59.097Z,19.27
2019-02-22T22:52:26.567Z,12.37
2019-02-22T22:54:53.974Z,16.52
2019-02-22T22:57:21.375Z,18.23
2019-02-22T22:59:48.792Z,16.20
2019-02-22T23:02:16.357Z,16.92
2019-02-22T23:04:44.269Z,18.45
2019-02-22T23:07:11.691Z,18.08
2019-02-22T23:09:39.099Z,13.57
2019-02-22T23:12:06.531Z,18.95
2019-02-22T23:14:33.935Z,16.10
2019-02-22T23:17:01.357Z,17.98
2019-02-22T23:19:28.872Z,15.90
2019-02-22T23:21:56.279Z,14.82
2019-02-22T23:24:23.732Z,11.95
2019-02-22T23:26:51.251Z,14.13
2019-02-22T23:29:18.651Z,15.93
2019-02-22T23:31:46.376Z,16.42
2019-02-22T23:34:13.814Z,13.25
2019-02-22T23:36:41.351Z,19.00
2019-02-22T23:39:08.760Z,13.02
2019-02-22T23:41:36.327Z,15.25
2019-02-22T23:44:03.827Z,15.13
2019-02-22T23:46:31.221Z,14.27
2019-02-22T23:48:58.631Z,14.80
2019-02-22T23:51:26.038Z,16.75
2019-02-22T23:53:53.958Z,11.85
2019-02-22T23:56:21.355Z,16.58
2019-02-22T23:58:49.140Z,19.05
